EWG4SG LEPA-EDDR
Flight info
| Callsign | EWG4SG |
|---|---|
| Flight time | 1h 36m |
| Altitude | 32000 |
| Route | MEROS DCT LAPIT DCT CHELY DCT LUMAS/N0438F380 DCT SOSUR DCT SECON DCT ODIXU DCT MAXIR DCT LUSOL DCT BODRU DCT OKTET DCT IRMAR DCT KINES DCT VANAS DCT MOBLO DCT UBIMA DCT GILIR/N0395F300 DCT PENDU DCT IXILU DCT EPL G21 MAKOT |
| Aircraft | A20N/M-SDE2E3FGHIRWXY/LB1 |
Departure
| Time | 2026-05-07 07:31 |
|---|---|
| Airport | Palma de Mallorca Airport (LEPA) |
Arrival
| Time | 2026-05-07 09:07 |
|---|---|
| Airport | Saarbrücken Airport (EDDR) |
| Time | Latitude | Longitude | Altitude | Speed | Heading |
|---|---|---|---|---|---|
| 2026-05-07 07:20 | 39.54639 | 2.73428 | 36 ft | 0 kts | 253° |
| 2026-05-07 07:23 | 39.54642 | 2.73440 | 36 ft | 2 kts | 253° |
| 2026-05-07 07:24 | 39.54647 | 2.73459 | 34 ft | 2 kts | 253° |
| 2026-05-07 07:24 | 39.54651 | 2.73477 | 34 ft | 2 kts | 253° |
| 2026-05-07 07:24 | 39.54656 | 2.73496 | 34 ft | 2 kts | 235° |
| 2026-05-07 07:24 | 39.54667 | 2.73509 | 33 ft | 2 kts | 197° |
| 2026-05-07 07:25 | 39.54682 | 2.73510 | 34 ft | 0 kts | 152° |
| 2026-05-07 07:27 | 39.54675 | 2.73515 | 35 ft | 5 kts | 152° |
| 2026-05-07 07:27 | 39.54629 | 2.73566 | 36 ft | 11 kts | 117° |
| 2026-05-07 07:27 | 39.54577 | 2.73636 | 35 ft | 12 kts | 184° |
| 2026-05-07 07:27 | 39.54514 | 2.73545 | 35 ft | 17 kts | 236° |
| 2026-05-07 07:28 | 39.54438 | 2.73398 | 35 ft | 22 kts | 236° |
| 2026-05-07 07:28 | 39.54358 | 2.73210 | 36 ft | 26 kts | 237° |
| 2026-05-07 07:28 | 39.54257 | 2.73030 | 36 ft | 10 kts | 207° |
| 2026-05-07 07:28 | 39.54197 | 2.73050 | 36 ft | 0 kts | 112° |
| 2026-05-07 07:29 | 39.54192 | 2.73064 | 36 ft | 4 kts | 112° |
| 2026-05-07 07:29 | 39.54179 | 2.73107 | 36 ft | 7 kts | 112° |
| 2026-05-07 07:29 | 39.54168 | 2.73188 | 36 ft | 11 kts | 96° |
| 2026-05-07 07:29 | 39.54181 | 2.73290 | 34 ft | 12 kts | 58° |
| 2026-05-07 07:30 | 39.54253 | 2.73443 | 35 ft | 18 kts | 58° |
| 2026-05-07 07:30 | 39.54292 | 2.73525 | 34 ft | 36 kts | 58° |
| 2026-05-07 07:30 | 39.54544 | 2.74056 | 36 ft | 99 kts | 58° |
| 2026-05-07 07:30 | 39.54999 | 2.75009 | 32 ft | 147 kts | 58° |
| 2026-05-07 07:31 | 39.55571 | 2.76202 | 387 ft | 161 kts | 59° |
| 2026-05-07 07:31 | 39.56200 | 2.77503 | 743 ft | 179 kts | 58° |
| 2026-05-07 07:31 | 39.56894 | 2.78937 | 1135 ft | 196 kts | 58° |
| 2026-05-07 07:31 | 39.57639 | 2.80477 | 1687 ft | 206 kts | 58° |
| 2026-05-07 07:32 | 39.58313 | 2.81867 | 2420 ft | 206 kts | 59° |
| 2026-05-07 07:32 | 39.59068 | 2.83433 | 3297 ft | 207 kts | 59° |
| 2026-05-07 07:32 | 39.59844 | 2.85050 | 3797 ft | 213 kts | 59° |
| 2026-05-07 07:32 | 39.60631 | 2.86692 | 3963 ft | 214 kts | 59° |
| 2026-05-07 07:33 | 39.61416 | 2.88330 | 3999 ft | 214 kts | 59° |
| 2026-05-07 07:33 | 39.62199 | 2.89963 | 4001 ft | 213 kts | 59° |
| 2026-05-07 07:33 | 39.63014 | 2.91597 | 4058 ft | 230 kts | 57° |
| 2026-05-07 07:33 | 39.63926 | 2.93362 | 4781 ft | 237 kts | 59° |
| 2026-05-07 07:34 | 39.64802 | 2.95198 | 5527 ft | 246 kts | 60° |
| 2026-05-07 07:34 | 39.65685 | 2.97212 | 6068 ft | 264 kts | 62° |
| 2026-05-07 07:34 | 39.66567 | 2.99333 | 6906 ft | 270 kts | 63° |
| 2026-05-07 07:34 | 39.67455 | 3.01511 | 7747 ft | 275 kts | 63° |
| 2026-05-07 07:35 | 39.68356 | 3.03736 | 8580 ft | 281 kts | 63° |
| 2026-05-07 07:35 | 39.69276 | 3.06004 | 9418 ft | 287 kts | 63° |
| 2026-05-07 07:35 | 39.70218 | 3.08326 | 10215 ft | 294 kts | 63° |
| 2026-05-07 07:35 | 39.71208 | 3.10762 | 10566 ft | 317 kts | 63° |
| 2026-05-07 07:36 | 39.72276 | 3.13387 | 10826 ft | 341 kts | 63° |
| 2026-05-07 07:36 | 39.73406 | 3.16159 | 11402 ft | 351 kts | 63° |
| 2026-05-07 07:36 | 39.74561 | 3.18990 | 12121 ft | 357 kts | 63° |
| 2026-05-07 07:36 | 39.75735 | 3.21866 | 12877 ft | 362 kts | 62° |
| 2026-05-07 07:37 | 39.76928 | 3.24761 | 13634 ft | 367 kts | 60° |
| 2026-05-07 07:37 | 39.78385 | 3.27531 | 14296 ft | 372 kts | 51° |
| 2026-05-07 07:37 | 39.80093 | 3.30087 | 14975 ft | 376 kts | 48° |
| 2026-05-07 07:37 | 39.81822 | 3.32663 | 15648 ft | 380 kts | 49° |
| 2026-05-07 07:38 | 39.83566 | 3.35276 | 16321 ft | 384 kts | 49° |
| 2026-05-07 07:38 | 39.85327 | 3.37921 | 16988 ft | 388 kts | 49° |
| 2026-05-07 07:38 | 39.86499 | 3.39683 | 17420 ft | 391 kts | 49° |
| 2026-05-07 07:38 | 39.88877 | 3.43261 | 18302 ft | 396 kts | 49° |
| 2026-05-07 07:39 | 39.90689 | 3.45991 | 18854 ft | 400 kts | 49° |
| 2026-05-07 07:39 | 39.92520 | 3.48750 | 19360 ft | 405 kts | 49° |
| 2026-05-07 07:39 | 39.94375 | 3.51549 | 19870 ft | 410 kts | 49° |
| 2026-05-07 07:39 | 39.96257 | 3.54390 | 20377 ft | 416 kts | 49° |
| 2026-05-07 07:40 | 39.97514 | 3.56289 | 20707 ft | 419 kts | 49° |
| 2026-05-07 07:40 | 39.99430 | 3.59187 | 21205 ft | 424 kts | 48° |
| 2026-05-07 07:40 | 40.01368 | 3.62119 | 21718 ft | 429 kts | 48° |
| 2026-05-07 07:40 | 40.03327 | 3.65088 | 22186 ft | 434 kts | 48° |
| 2026-05-07 07:41 | 40.05310 | 3.68096 | 22664 ft | 439 kts | 48° |
| 2026-05-07 07:41 | 40.07311 | 3.71133 | 23137 ft | 444 kts | 48° |
| 2026-05-07 07:41 | 40.09176 | 3.73967 | 23557 ft | 449 kts | 48° |
| 2026-05-07 07:41 | 40.11222 | 3.77080 | 23975 ft | 453 kts | 48° |
| 2026-05-07 07:42 | 40.13285 | 3.80221 | 24403 ft | 457 kts | 48° |
| 2026-05-07 07:42 | 40.15363 | 3.83387 | 24824 ft | 460 kts | 48° |
| 2026-05-07 07:42 | 40.17449 | 3.86569 | 25251 ft | 463 kts | 48° |
| 2026-05-07 07:42 | 40.19559 | 3.89790 | 25659 ft | 467 kts | 48° |
| 2026-05-07 07:43 | 40.21675 | 3.93024 | 26051 ft | 470 kts | 48° |
| 2026-05-07 07:43 | 40.23806 | 3.96285 | 26446 ft | 473 kts | 48° |
| 2026-05-07 07:43 | 40.25952 | 3.99573 | 26822 ft | 476 kts | 48° |
| 2026-05-07 07:43 | 40.28115 | 4.02889 | 27197 ft | 480 kts | 48° |
| 2026-05-07 07:44 | 40.30290 | 4.06227 | 27559 ft | 483 kts | 48° |
| 2026-05-07 07:44 | 40.32449 | 4.09545 | 27905 ft | 486 kts | 48° |
| 2026-05-07 07:44 | 40.34651 | 4.12933 | 28244 ft | 489 kts | 48° |
| 2026-05-07 07:44 | 40.36867 | 4.16346 | 28578 ft | 492 kts | 48° |
| 2026-05-07 07:45 | 40.39087 | 4.19769 | 28909 ft | 495 kts | 48° |
| 2026-05-07 07:45 | 40.41327 | 4.23227 | 29243 ft | 498 kts | 48° |
| 2026-05-07 07:45 | 40.43575 | 4.26700 | 29542 ft | 500 kts | 48° |
| 2026-05-07 07:45 | 40.45833 | 4.30193 | 29859 ft | 503 kts | 48° |
| 2026-05-07 07:46 | 40.48202 | 4.33572 | 30140 ft | 503 kts | 39° |
| 2026-05-07 07:46 | 40.50987 | 4.36337 | 30421 ft | 499 kts | 27° |
| 2026-05-07 07:46 | 40.54086 | 4.38324 | 30710 ft | 493 kts | 15° |
| 2026-05-07 07:46 | 40.57379 | 4.39474 | 30993 ft | 486 kts | 3° |
| 2026-05-07 07:47 | 40.60713 | 4.39993 | 31325 ft | 483 kts | 359° |
| 2026-05-07 07:47 | 40.64054 | 4.40431 | 31719 ft | 482 kts | 0° |
| 2026-05-07 07:47 | 40.67389 | 4.40981 | 31955 ft | 483 kts | 2° |
| 2026-05-07 07:48 | 40.74032 | 4.42403 | 32197 ft | 485 kts | 4° |
| 2026-05-07 07:48 | 40.77343 | 4.43190 | 32604 ft | 484 kts | 5° |
| 2026-05-07 07:48 | 40.80607 | 4.43979 | 32970 ft | 482 kts | 5° |
| 2026-05-07 07:48 | 40.83909 | 4.44779 | 33337 ft | 482 kts | 5° |
| 2026-05-07 07:49 | 40.87209 | 4.45577 | 33672 ft | 481 kts | 5° |
| 2026-05-07 07:49 | 40.90505 | 4.46374 | 34008 ft | 480 kts | 5° |
| 2026-05-07 07:49 | 40.93787 | 4.47168 | 34293 ft | 479 kts | 5° |
| 2026-05-07 07:49 | 40.97065 | 4.47963 | 34553 ft | 479 kts | 5° |
| 2026-05-07 07:50 | 41.00350 | 4.48760 | 34814 ft | 479 kts | 5° |
| 2026-05-07 07:50 | 41.03627 | 4.49556 | 35063 ft | 479 kts | 5° |
| 2026-05-07 07:50 | 41.06897 | 4.50351 | 35281 ft | 478 kts | 5° |
| 2026-05-07 07:50 | 41.10177 | 4.51149 | 35526 ft | 478 kts | 5° |
| 2026-05-07 07:51 | 41.13447 | 4.51945 | 35763 ft | 478 kts | 4° |
| 2026-05-07 07:51 | 41.16721 | 4.52743 | 35964 ft | 478 kts | 4° |
| 2026-05-07 07:51 | 41.19953 | 4.53531 | 36184 ft | 478 kts | 4° |
| 2026-05-07 07:51 | 41.23220 | 4.54329 | 36390 ft | 478 kts | 4° |
| 2026-05-07 07:52 | 41.26491 | 4.55128 | 36596 ft | 477 kts | 4° |
| 2026-05-07 07:52 | 41.29757 | 4.55927 | 36792 ft | 477 kts | 4° |
| 2026-05-07 07:52 | 41.33032 | 4.56729 | 36973 ft | 477 kts | 4° |
| 2026-05-07 07:52 | 41.36299 | 4.57530 | 37165 ft | 477 kts | 4° |
| 2026-05-07 07:53 | 41.39562 | 4.58331 | 37343 ft | 477 kts | 4° |
| 2026-05-07 07:53 | 41.42828 | 4.59133 | 37520 ft | 477 kts | 4° |
| 2026-05-07 07:53 | 41.46091 | 4.59936 | 37687 ft | 477 kts | 4° |
| 2026-05-07 07:53 | 41.49100 | 4.60676 | 37832 ft | 477 kts | 4° |
| 2026-05-07 07:54 | 41.52361 | 4.61480 | 37986 ft | 477 kts | 4° |
| 2026-05-07 07:54 | 41.58886 | 4.63090 | 38017 ft | 476 kts | 4° |
| 2026-05-07 07:55 | 41.65395 | 4.64700 | 38015 ft | 476 kts | 5° |
| 2026-05-07 07:55 | 41.71904 | 4.66314 | 38027 ft | 476 kts | 5° |
| 2026-05-07 07:56 | 41.78339 | 4.68662 | 38014 ft | 480 kts | 11° |
| 2026-05-07 07:56 | 41.84755 | 4.71193 | 38022 ft | 480 kts | 11° |
| 2026-05-07 07:57 | 41.91170 | 4.73724 | 38020 ft | 480 kts | 11° |
| 2026-05-07 07:57 | 41.97582 | 4.76269 | 38013 ft | 480 kts | 11° |
| 2026-05-07 07:58 | 42.03944 | 4.78802 | 38011 ft | 480 kts | 11° |
| 2026-05-07 07:58 | 42.10349 | 4.81357 | 38014 ft | 479 kts | 11° |
| 2026-05-07 07:59 | 42.16752 | 4.83916 | 38017 ft | 479 kts | 11° |
| 2026-05-07 07:59 | 42.22856 | 4.86361 | 38016 ft | 479 kts | 11° |
| 2026-05-07 08:00 | 42.29244 | 4.88926 | 38016 ft | 478 kts | 11° |
| 2026-05-07 08:00 | 42.35585 | 4.91476 | 38016 ft | 478 kts | 11° |
| 2026-05-07 08:01 | 42.41954 | 4.94043 | 38012 ft | 477 kts | 11° |
| 2026-05-07 08:01 | 42.48317 | 4.96614 | 38010 ft | 476 kts | 11° |
| 2026-05-07 08:02 | 42.54672 | 4.99186 | 38011 ft | 476 kts | 11° |
| 2026-05-07 08:02 | 42.61024 | 5.01729 | 38008 ft | 475 kts | 11° |
| 2026-05-07 08:03 | 42.67327 | 5.04213 | 38008 ft | 474 kts | 11° |
| 2026-05-07 08:03 | 42.73667 | 5.06722 | 38008 ft | 474 kts | 11° |
| 2026-05-07 08:04 | 42.79922 | 5.09645 | 38000 ft | 481 kts | 22° |
| 2026-05-07 08:04 | 42.82798 | 5.12021 | 37990 ft | 486 kts | 33° |
| 2026-05-07 08:04 | 42.85374 | 5.15057 | 37987 ft | 491 kts | 43° |
| 2026-05-07 08:05 | 42.89667 | 5.22353 | 37979 ft | 493 kts | 50° |
| 2026-05-07 08:05 | 42.93849 | 5.29719 | 37979 ft | 494 kts | 50° |
| 2026-05-07 08:06 | 42.98053 | 5.37148 | 37983 ft | 494 kts | 50° |
| 2026-05-07 08:06 | 43.02248 | 5.44588 | 37982 ft | 494 kts | 50° |
| 2026-05-07 08:07 | 43.06443 | 5.52048 | 37980 ft | 495 kts | 50° |
| 2026-05-07 08:07 | 43.10692 | 5.59453 | 37986 ft | 494 kts | 45° |
| 2026-05-07 08:08 | 43.15100 | 5.66193 | 37982 ft | 494 kts | 45° |
| 2026-05-07 08:08 | 43.19673 | 5.73237 | 37995 ft | 495 kts | 45° |
| 2026-05-07 08:09 | 43.24247 | 5.80299 | 37999 ft | 496 kts | 45° |
| 2026-05-07 08:09 | 43.28819 | 5.87376 | 37987 ft | 494 kts | 45° |
| 2026-05-07 08:10 | 43.33370 | 5.94436 | 37988 ft | 494 kts | 45° |
| 2026-05-07 08:10 | 43.38373 | 6.00752 | 37989 ft | 484 kts | 27° |
| 2026-05-07 08:11 | 43.44415 | 6.04248 | 37987 ft | 469 kts | 6° |
| 2026-05-07 08:11 | 43.50824 | 6.05183 | 37998 ft | 462 kts | 358° |
| 2026-05-07 08:12 | 43.57255 | 6.05828 | 37985 ft | 462 kts | 358° |
| 2026-05-07 08:12 | 43.63643 | 6.06478 | 37985 ft | 460 kts | 358° |
| 2026-05-07 08:13 | 43.70041 | 6.07124 | 37982 ft | 461 kts | 358° |
| 2026-05-07 08:13 | 43.76406 | 6.08485 | 37991 ft | 468 kts | 9° |
| 2026-05-07 08:14 | 43.82551 | 6.11550 | 37986 ft | 476 kts | 21° |
| 2026-05-07 08:14 | 43.88507 | 6.15607 | 37989 ft | 477 kts | 21° |
| 2026-05-07 08:15 | 43.94465 | 6.19643 | 37991 ft | 477 kts | 21° |
| 2026-05-07 08:15 | 44.00425 | 6.23711 | 37984 ft | 477 kts | 21° |
| 2026-05-07 08:16 | 44.06382 | 6.27794 | 37988 ft | 477 kts | 21° |
| 2026-05-07 08:16 | 44.12330 | 6.31883 | 37972 ft | 477 kts | 22° |
| 2026-05-07 08:17 | 44.18279 | 6.35983 | 37983 ft | 477 kts | 22° |
| 2026-05-07 08:17 | 44.24218 | 6.40082 | 37974 ft | 476 kts | 22° |
| 2026-05-07 08:18 | 44.30152 | 6.44187 | 37973 ft | 476 kts | 22° |
| 2026-05-07 08:18 | 44.36051 | 6.48277 | 37978 ft | 476 kts | 22° |
| 2026-05-07 08:19 | 44.41939 | 6.52368 | 37978 ft | 475 kts | 22° |
| 2026-05-07 08:19 | 44.47871 | 6.56497 | 37986 ft | 475 kts | 22° |
| 2026-05-07 08:20 | 44.53791 | 6.60628 | 37987 ft | 475 kts | 22° |
| 2026-05-07 08:20 | 44.59712 | 6.64770 | 37984 ft | 475 kts | 22° |
| 2026-05-07 08:21 | 44.65624 | 6.68915 | 37989 ft | 475 kts | 22° |
| 2026-05-07 08:21 | 44.71530 | 6.73063 | 37991 ft | 475 kts | 22° |
| 2026-05-07 08:22 | 44.77487 | 6.76844 | 37984 ft | 468 kts | 13° |
| 2026-05-07 08:22 | 44.83818 | 6.78556 | 37986 ft | 459 kts | 358° |
| 2026-05-07 08:23 | 44.90132 | 6.78350 | 37980 ft | 453 kts | 352° |
| 2026-05-07 08:23 | 44.96426 | 6.77950 | 37990 ft | 452 kts | 353° |
| 2026-05-07 08:24 | 45.02713 | 6.77545 | 38003 ft | 453 kts | 352° |
| 2026-05-07 08:24 | 45.09046 | 6.77126 | 38012 ft | 455 kts | 352° |
| 2026-05-07 08:25 | 45.14305 | 6.76779 | 38012 ft | 454 kts | 352° |
| 2026-05-07 08:25 | 45.20623 | 6.76360 | 38013 ft | 454 kts | 352° |
| 2026-05-07 08:26 | 45.30096 | 6.75730 | 38012 ft | 452 kts | 353° |
| 2026-05-07 08:26 | 45.36373 | 6.75311 | 38037 ft | 452 kts | 353° |
| 2026-05-07 08:27 | 45.42662 | 6.74886 | 38029 ft | 456 kts | 353° |
| 2026-05-07 08:27 | 45.49005 | 6.74460 | 38021 ft | 455 kts | 353° |
| 2026-05-07 08:28 | 45.55344 | 6.74027 | 38016 ft | 456 kts | 353° |
| 2026-05-07 08:28 | 45.61704 | 6.73593 | 38021 ft | 456 kts | 353° |
| 2026-05-07 08:29 | 45.67997 | 6.73160 | 38004 ft | 456 kts | 353° |
| 2026-05-07 08:29 | 45.74348 | 6.72720 | 38017 ft | 457 kts | 353° |
| 2026-05-07 08:30 | 45.80709 | 6.72281 | 38023 ft | 458 kts | 353° |
| 2026-05-07 08:30 | 45.87084 | 6.71848 | 38020 ft | 458 kts | 353° |
| 2026-05-07 08:31 | 45.93452 | 6.71416 | 38019 ft | 458 kts | 353° |
| 2026-05-07 08:31 | 45.99819 | 6.70982 | 38012 ft | 459 kts | 353° |
| 2026-05-07 08:32 | 46.06150 | 6.70552 | 38007 ft | 458 kts | 353° |
| 2026-05-07 08:32 | 46.12465 | 6.69617 | 38006 ft | 454 kts | 345° |
| 2026-05-07 08:33 | 46.18535 | 6.67204 | 38019 ft | 451 kts | 337° |
| 2026-05-07 08:33 | 46.24493 | 6.64323 | 38016 ft | 452 kts | 338° |
| 2026-05-07 08:34 | 46.30475 | 6.61438 | 38003 ft | 452 kts | 338° |
| 2026-05-07 08:34 | 46.36377 | 6.58564 | 38009 ft | 450 kts | 338° |
| 2026-05-07 08:35 | 46.42315 | 6.55660 | 38013 ft | 450 kts | 338° |
| 2026-05-07 08:35 | 46.48258 | 6.52746 | 38014 ft | 450 kts | 338° |
| 2026-05-07 08:36 | 46.54198 | 6.49827 | 38011 ft | 450 kts | 338° |
| 2026-05-07 08:36 | 46.60131 | 6.46905 | 38013 ft | 450 kts | 338° |
| 2026-05-07 08:37 | 46.66066 | 6.43975 | 38018 ft | 450 kts | 338° |
| 2026-05-07 08:37 | 46.71961 | 6.41058 | 38018 ft | 450 kts | 338° |
| 2026-05-07 08:38 | 46.77893 | 6.38116 | 38023 ft | 452 kts | 338° |
| 2026-05-07 08:38 | 46.83871 | 6.35144 | 38022 ft | 452 kts | 338° |
| 2026-05-07 08:39 | 46.89945 | 6.32923 | 38028 ft | 455 kts | 355° |
| 2026-05-07 08:39 | 46.96309 | 6.33674 | 38033 ft | 460 kts | 5° |
| 2026-05-07 08:40 | 47.02657 | 6.34900 | 38031 ft | 460 kts | 5° |
| 2026-05-07 08:40 | 47.08971 | 6.36068 | 38030 ft | 460 kts | 5° |
| 2026-05-07 08:41 | 47.15312 | 6.37218 | 38030 ft | 459 kts | 5° |
| 2026-05-07 08:41 | 47.21646 | 6.38365 | 38029 ft | 458 kts | 5° |
| 2026-05-07 08:42 | 47.27980 | 6.39516 | 38023 ft | 458 kts | 5° |
| 2026-05-07 08:42 | 47.34304 | 6.40668 | 38031 ft | 458 kts | 5° |
| 2026-05-07 08:43 | 47.40625 | 6.41821 | 38032 ft | 458 kts | 5° |
| 2026-05-07 08:43 | 47.46951 | 6.42980 | 38033 ft | 457 kts | 5° |
| 2026-05-07 08:44 | 47.53237 | 6.44133 | 37893 ft | 459 kts | 5° |
| 2026-05-07 08:44 | 47.56418 | 6.44717 | 37476 ft | 460 kts | 5° |
| 2026-05-07 08:44 | 47.59592 | 6.45301 | 36929 ft | 459 kts | 5° |
| 2026-05-07 08:45 | 47.62753 | 6.45884 | 36393 ft | 455 kts | 5° |
| 2026-05-07 08:45 | 47.65886 | 6.46463 | 35876 ft | 451 kts | 5° |
| 2026-05-07 08:45 | 47.69002 | 6.47039 | 35361 ft | 449 kts | 5° |
| 2026-05-07 08:45 | 47.72099 | 6.47611 | 34865 ft | 449 kts | 5° |
| 2026-05-07 08:46 | 47.75202 | 6.48185 | 34371 ft | 450 kts | 5° |
| 2026-05-07 08:46 | 47.78311 | 6.48760 | 33855 ft | 449 kts | 5° |
| 2026-05-07 08:46 | 47.81365 | 6.49326 | 33282 ft | 448 kts | 5° |
| 2026-05-07 08:46 | 47.84463 | 6.49901 | 32709 ft | 447 kts | 6° |
| 2026-05-07 08:47 | 47.87553 | 6.50475 | 32152 ft | 447 kts | 6° |
| 2026-05-07 08:47 | 47.90639 | 6.51050 | 31605 ft | 447 kts | 6° |
| 2026-05-07 08:47 | 47.93726 | 6.51626 | 31069 ft | 447 kts | 6° |
| 2026-05-07 08:47 | 47.96811 | 6.52202 | 30545 ft | 446 kts | 6° |
| 2026-05-07 08:48 | 47.99889 | 6.52777 | 30009 ft | 443 kts | 6° |
| 2026-05-07 08:48 | 48.02940 | 6.53349 | 29398 ft | 438 kts | 6° |
| 2026-05-07 08:48 | 48.05946 | 6.53913 | 28801 ft | 433 kts | 6° |
| 2026-05-07 08:48 | 48.08925 | 6.54472 | 28216 ft | 428 kts | 6° |
| 2026-05-07 08:49 | 48.11873 | 6.55027 | 27648 ft | 426 kts | 6° |
| 2026-05-07 08:49 | 48.14808 | 6.55579 | 27088 ft | 424 kts | 6° |
| 2026-05-07 08:49 | 48.17721 | 6.56127 | 26536 ft | 420 kts | 6° |
| 2026-05-07 08:49 | 48.20575 | 6.56665 | 26008 ft | 416 kts | 6° |
| 2026-05-07 08:50 | 48.23469 | 6.57211 | 25474 ft | 413 kts | 6° |
| 2026-05-07 08:50 | 48.26283 | 6.57742 | 24964 ft | 411 kts | 6° |
| 2026-05-07 08:50 | 48.29107 | 6.58276 | 24453 ft | 408 kts | 6° |
| 2026-05-07 08:50 | 48.31912 | 6.58808 | 24139 ft | 403 kts | 6° |
| 2026-05-07 08:51 | 48.34691 | 6.59334 | 24002 ft | 405 kts | 6° |
| 2026-05-07 08:51 | 48.37524 | 6.59871 | 23856 ft | 418 kts | 6° |
| 2026-05-07 08:51 | 48.40474 | 6.60429 | 23530 ft | 433 kts | 6° |
| 2026-05-07 08:51 | 48.43464 | 6.60998 | 22931 ft | 432 kts | 6° |
| 2026-05-07 08:52 | 48.46424 | 6.61563 | 22326 ft | 426 kts | 6° |
| 2026-05-07 08:52 | 48.49343 | 6.62122 | 21744 ft | 419 kts | 6° |
| 2026-05-07 08:52 | 48.52220 | 6.62672 | 21170 ft | 416 kts | 6° |
| 2026-05-07 08:52 | 48.55096 | 6.63222 | 20606 ft | 415 kts | 6° |
| 2026-05-07 08:53 | 48.57961 | 6.63771 | 20052 ft | 412 kts | 5° |
| 2026-05-07 08:53 | 48.60788 | 6.64313 | 19508 ft | 408 kts | 5° |
| 2026-05-07 08:53 | 48.63600 | 6.64853 | 18968 ft | 405 kts | 5° |
| 2026-05-07 08:53 | 48.66382 | 6.65388 | 18450 ft | 402 kts | 5° |
| 2026-05-07 08:54 | 48.69121 | 6.65915 | 17876 ft | 399 kts | 5° |
| 2026-05-07 08:54 | 48.71867 | 6.66443 | 17282 ft | 395 kts | 5° |
| 2026-05-07 08:54 | 48.74581 | 6.66964 | 16702 ft | 391 kts | 5° |
| 2026-05-07 08:54 | 48.77271 | 6.67482 | 16134 ft | 387 kts | 6° |
| 2026-05-07 08:55 | 48.79885 | 6.67985 | 15585 ft | 384 kts | 6° |
| 2026-05-07 08:55 | 48.82528 | 6.68495 | 15032 ft | 381 kts | 6° |
| 2026-05-07 08:55 | 48.85142 | 6.69001 | 14497 ft | 376 kts | 6° |
| 2026-05-07 08:55 | 48.87731 | 6.69502 | 13968 ft | 372 kts | 6° |
| 2026-05-07 08:56 | 48.90279 | 6.69996 | 13400 ft | 368 kts | 6° |
| 2026-05-07 08:56 | 48.92783 | 6.70481 | 12813 ft | 365 kts | 6° |
| 2026-05-07 08:56 | 48.95292 | 6.70968 | 12240 ft | 361 kts | 6° |
| 2026-05-07 08:56 | 48.97732 | 6.71852 | 11676 ft | 363 kts | 21° |
| 2026-05-07 08:57 | 48.99871 | 6.73851 | 11123 ft | 362 kts | 40° |
| 2026-05-07 08:57 | 49.01591 | 6.76643 | 10577 ft | 361 kts | 48° |
| 2026-05-07 08:57 | 49.03240 | 6.79533 | 10040 ft | 360 kts | 48° |
| 2026-05-07 08:57 | 49.04875 | 6.82393 | 9463 ft | 357 kts | 47° |
| 2026-05-07 08:58 | 49.06506 | 6.85238 | 8876 ft | 354 kts | 47° |
| 2026-05-07 08:58 | 49.08121 | 6.88052 | 8329 ft | 350 kts | 47° |
| 2026-05-07 08:58 | 49.09697 | 6.90799 | 8085 ft | 337 kts | 47° |
| 2026-05-07 08:58 | 49.11214 | 6.93440 | 7833 ft | 326 kts | 47° |
| 2026-05-07 08:59 | 49.12700 | 6.96004 | 7461 ft | 320 kts | 47° |
| 2026-05-07 08:59 | 49.14129 | 6.98574 | 7072 ft | 315 kts | 55° |
| 2026-05-07 08:59 | 49.14963 | 7.01622 | 6712 ft | 312 kts | 79° |
| 2026-05-07 08:59 | 49.15120 | 7.04904 | 6368 ft | 308 kts | 87° |
| 2026-05-07 09:00 | 49.15197 | 7.08087 | 6099 ft | 300 kts | 87° |
| 2026-05-07 09:00 | 49.15271 | 7.11234 | 5834 ft | 293 kts | 87° |
| 2026-05-07 09:00 | 49.15341 | 7.14308 | 5569 ft | 287 kts | 87° |
| 2026-05-07 09:00 | 49.15408 | 7.17317 | 5328 ft | 280 kts | 87° |
| 2026-05-07 09:01 | 49.15471 | 7.20250 | 5044 ft | 271 kts | 87° |
| 2026-05-07 09:01 | 49.15532 | 7.23063 | 4766 ft | 260 kts | 87° |
| 2026-05-07 09:01 | 49.15594 | 7.25786 | 4446 ft | 252 kts | 87° |
| 2026-05-07 09:01 | 49.15655 | 7.28425 | 4137 ft | 244 kts | 87° |
| 2026-05-07 09:02 | 49.15713 | 7.30927 | 4007 ft | 227 kts | 87° |
| 2026-05-07 09:02 | 49.15766 | 7.33345 | 4005 ft | 229 kts | 87° |
| 2026-05-07 09:02 | 49.15879 | 7.35758 | 3995 ft | 226 kts | 74° |
| 2026-05-07 09:02 | 49.16645 | 7.37819 | 3999 ft | 225 kts | 40° |
| 2026-05-07 09:03 | 49.17997 | 7.38889 | 4001 ft | 220 kts | 6° |
| 2026-05-07 09:03 | 49.19475 | 7.38628 | 4001 ft | 215 kts | 333° |
| 2026-05-07 09:03 | 49.20669 | 7.37274 | 3998 ft | 215 kts | 314° |
| 2026-05-07 09:03 | 49.21601 | 7.35507 | 3987 ft | 213 kts | 296° |
| 2026-05-07 09:04 | 49.22011 | 7.33413 | 3876 ft | 203 kts | 277° |
| 2026-05-07 09:04 | 49.22061 | 7.31296 | 3624 ft | 195 kts | 269° |
| 2026-05-07 09:04 | 49.21990 | 7.29264 | 3340 ft | 188 kts | 268° |
| 2026-05-07 09:04 | 49.21936 | 7.27305 | 3085 ft | 180 kts | 268° |
| 2026-05-07 09:05 | 49.21880 | 7.25441 | 2834 ft | 170 kts | 268° |
| 2026-05-07 09:05 | 49.21830 | 7.23753 | 2614 ft | 148 kts | 268° |
| 2026-05-07 09:05 | 49.21787 | 7.22264 | 2421 ft | 138 kts | 268° |
| 2026-05-07 09:05 | 49.21744 | 7.20787 | 2232 ft | 138 kts | 268° |
| 2026-05-07 09:06 | 49.21701 | 7.19323 | 2046 ft | 137 kts | 268° |
| 2026-05-07 09:06 | 49.21659 | 7.17886 | 1849 ft | 135 kts | 268° |
| 2026-05-07 09:06 | 49.21617 | 7.16477 | 1658 ft | 134 kts | 267° |
| 2026-05-07 09:06 | 49.21577 | 7.15065 | 1468 ft | 131 kts | 267° |
| 2026-05-07 09:07 | 49.21540 | 7.13663 | 1322 ft | 132 kts | 265° |
| 2026-05-07 09:07 | 49.21486 | 7.12249 | 1099 ft | 132 kts | 267° |
| 2026-05-07 09:07 | 49.21453 | 7.10966 | 1050 ft | 99 kts | 268° |
| 2026-05-07 09:07 | 49.21432 | 7.10283 | 1039 ft | 34 kts | 266° |
| 2026-05-07 09:08 | 49.21425 | 7.10078 | 1038 ft | 5 kts | 267° |
| 2026-05-07 09:08 | 49.21426 | 7.10097 | 1038 ft | 1 kts | 267° |
| 2026-05-07 09:08 | 49.21425 | 7.10047 | 1038 ft | 8 kts | 270° |
| 2026-05-07 09:08 | 49.21423 | 7.09931 | 1036 ft | 14 kts | 268° |
| 2026-05-07 09:09 | 49.21442 | 7.09797 | 1035 ft | 13 kts | 320° |
| 2026-05-07 09:09 | 49.21510 | 7.09844 | 1035 ft | 11 kts | 67° |
| 2026-05-07 09:09 | 49.21531 | 7.09918 | 1036 ft | 13 kts | 66° |
| 2026-05-07 09:09 | 49.21578 | 7.10110 | 1039 ft | 16 kts | 79° |
| 2026-05-07 09:10 | 49.21585 | 7.10295 | 1041 ft | 19 kts | 88° |
| 2026-05-07 09:10 | 49.21591 | 7.10507 | 1044 ft | 21 kts | 87° |
| 2026-05-07 09:10 | 49.21597 | 7.10732 | 1047 ft | 22 kts | 87° |
| 2026-05-07 09:10 | 49.21604 | 7.10971 | 1050 ft | 23 kts | 88° |
| 2026-05-07 09:11 | 49.21637 | 7.11105 | 1052 ft | 19 kts | 34° |
| 2026-05-07 09:11 | 49.21753 | 7.11172 | 1054 ft | 12 kts | 32° |
| 2026-05-07 09:11 | 49.21796 | 7.11251 | 1054 ft | 4 kts | 358° |
| 2026-05-07 09:11 | 49.21829 | 7.11236 | 1054 ft | 0 kts | 346° |